Time;durP1;ratioP1;P1;durP2;ratioP2;P2;SDS_P1;SDS_P2;PMS_P1;PMS_P2;Temp;Humidity;BMP_temperature;BMP_pressure;BME280_temperature;BME280_humidity;BME280_pressure;Samples;Min_cycle;Max_cycle;Signal;HPM_P1;HPM_P2
2022/10/01 00:03:16;;;;;;;1.35;1.13;;;;;;;;;;10408652;28;20441;-58
2022/10/01 00:08:17;;;;;;;1.75;1.00;;;;;;;;;;10409047;28;20551;-60
2022/10/01 00:13:17;;;;;;;2.38;1.05;;;;;;;;;;10408560;28;20427;-58
2022/10/01 00:18:17;;;;;;;2.83;1.17;;;;;;;;;;10407667;28;20025;-58
2022/10/01 00:23:18;;;;;;;1.63;1.20;;;;;;;;;;10408794;28;20033;-58
2022/10/01 00:28:18;;;;;;;1.88;0.98;;;;;;;;;;10408659;28;20419;-58
2022/10/01 00:33:19;;;;;;;1.60;1.00;;;;;;;;;;10408037;28;20029;-59
2022/10/01 00:38:19;;;;;;;1.30;1.20;;;;;;;;;;10390336;28;20030;-57
2022/10/01 00:43:24;;;;;;;2.33;1.10;;;;;;;;;;10408307;28;20118;-62
2022/10/01 00:48:27;;;;;;;0.88;0.88;;;;;;;;;;10390564;28;20408;-58
2022/10/01 00:53:27;;;;;;;1.95;0.95;;;;;;;;;;10414244;28;20064;-57
2022/10/01 00:58:28;;;;;;;1.48;1.00;;;;;;;;;;10414617;28;20496;-57
2022/10/01 01:03:29;;;;;;;0.90;0.90;;;;;;;;;;10414633;28;20036;-57
2022/10/01 01:08:29;;;;;;;1.40;1.00;;;;;;;;;;10414856;28;20021;-58
2022/10/01 01:13:40;;;;;;;1.70;0.90;;;;;;;;;;10415038;28;20261;-57
2022/10/01 01:18:43;;;;;;;1.17;1.05;;;;;;;;;;10415799;28;20108;-57
2022/10/01 01:24:02;;;;;;;1.20;1.10;;;;;;;;;;10414309;28;20033;-57
2022/10/01 01:29:06;;;;;;;1.13;1.00;;;;;;;;;;10414796;28;20039;-57
2022/10/01 01:34:11;;;;;;;2.22;1.10;;;;;;;;;;10413982;28;20017;-57
2022/10/01 01:39:13;;;;;;;2.53;1.27;;;;;;;;;;10414038;28;20025;-57
2022/10/01 01:44:15;;;;;;;1.08;0.82;;;;;;;;;;10414142;28;20025;-58
2022/10/01 01:49:16;;;;;;;1.00;0.90;;;;;;;;;;10414059;28;20029;-58
2022/10/01 01:54:18;;;;;;;0.93;0.88;;;;;;;;;;10413899;28;20025;-57
2022/10/01 01:59:19;;;;;;;0.90;0.90;;;;;;;;;;10395822;28;20091;-58
2022/10/01 02:04:22;;;;;;;0.95;0.82;;;;;;;;;;10412141;28;20107;-58
2022/10/01 02:09:27;;;;;;;1.10;1.00;;;;;;;;;;10413324;28;20037;-57
2022/10/01 02:14:37;;;;;;;3.03;1.25;;;;;;;;;;10412407;28;20099;-58
2022/10/01 02:19:59;;;;;;;1.55;1.00;;;;;;;;;;10412384;28;20473;-58
2022/10/01 02:25:00;;;;;;;1.10;1.00;;;;;;;;;;10412070;28;20025;-57
2022/10/01 02:30:05;;;;;;;3.50;1.08;;;;;;;;;;10412062;28;20021;-58
2022/10/01 02:35:07;;;;;;;1.00;0.90;;;;;;;;;;10412117;28;20037;-58
2022/10/01 02:40:11;;;;;;;1.40;1.08;;;;;;;;;;10412094;28;20029;-58
2022/10/01 02:45:12;;;;;;;1.65;0.95;;;;;;;;;;10411190;28;20037;-58
2022/10/01 02:50:13;;;;;;;4.93;1.25;;;;;;;;;;10410721;28;20056;-58
2022/10/01 02:55:17;;;;;;;1.30;0.90;;;;;;;;;;10410906;28;20489;-57
2022/10/01 03:00:20;;;;;;;1.50;1.00;;;;;;;;;;10410805;28;20025;-58
2022/10/01 03:05:21;;;;;;;1.33;0.90;;;;;;;;;;10411424;28;20090;-57
2022/10/01 03:10:21;;;;;;;1.20;1.10;;;;;;;;;;10410957;28;20539;-59
2022/10/01 03:15:21;;;;;;;1.20;0.80;;;;;;;;;;10410046;28;20049;-58
2022/10/01 03:20:22;;;;;;;2.15;0.93;;;;;;;;;;10410505;28;20033;-58
2022/10/01 03:25:22;;;;;;;1.27;1.00;;;;;;;;;;10410290;28;20477;-58
2022/10/01 03:30:23;;;;;;;0.98;0.80;;;;;;;;;;10409774;28;20030;-58
2022/10/01 03:35:23;;;;;;;1.25;0.98;;;;;;;;;;10409567;28;20025;-60
2022/10/01 03:40:24;;;;;;;0.85;0.80;;;;;;;;;;10409980;28;20049;-62
2022/10/01 03:45:24;;;;;;;2.57;0.93;;;;;;;;;;10409842;28;20503;-60
2022/10/01 03:50:24;;;;;;;1.00;1.00;;;;;;;;;;10409373;28;20040;-63
2022/10/01 03:55:25;;;;;;;1.48;0.90;;;;;;;;;;10409143;28;20064;-62
2022/10/01 04:00:25;;;;;;;0.98;0.90;;;;;;;;;;10409639;28;20021;-63
2022/10/01 04:05:25;;;;;;;1.45;1.08;;;;;;;;;;10391200;28;20039;-61
2022/10/01 04:10:26;;;;;;;1.10;0.95;;;;;;;;;;10408886;28;20388;-64
2022/10/01 04:15:27;;;;;;;1.53;1.00;;;;;;;;;;10408594;28;20485;-62
2022/10/01 04:20:27;;;;;;;0.75;0.75;;;;;;;;;;10408793;28;20025;-64
2022/10/01 04:25:28;;;;;;;0.98;0.90;;;;;;;;;;10410714;28;20036;-63
2022/10/01 04:30:32;;;;;;;0.90;0.90;;;;;;;;;;10416715;28;20037;-59
2022/10/01 04:35:33;;;;;;;1.70;0.85;;;;;;;;;;10416914;28;20389;-64
2022/10/01 04:40:35;;;;;;;2.72;1.10;;;;;;;;;;10416864;28;20029;-57
2022/10/01 04:45:36;;;;;;;0.80;0.80;;;;;;;;;;10415964;28;20100;-58
2022/10/01 04:50:36;;;;;;;1.38;0.85;;;;;;;;;;10415846;28;20143;-58
2022/10/01 04:55:36;;;;;;;1.10;1.00;;;;;;;;;;10415681;28;20083;-59
2022/10/01 05:00:36;;;;;;;0.90;0.90;;;;;;;;;;10416019;28;20060;-58
2022/10/01 05:05:37;;;;;;;1.02;0.90;;;;;;;;;;10415220;28;20495;-58
2022/10/01 05:10:38;;;;;;;0.85;0.85;;;;;;;;;;10415688;28;20433;-58
2022/10/01 05:15:38;;;;;;;0.90;0.83;;;;;;;;;;10414609;28;20034;-59
2022/10/01 05:20:38;;;;;;;0.95;0.73;;;;;;;;;;10414786;28;20481;-58
2022/10/01 05:25:38;;;;;;;1.33;0.95;;;;;;;;;;10414507;28;20108;-59
2022/10/01 05:30:39;;;;;;;2.20;0.90;;;;;;;;;;10414495;28;20112;-58
2022/10/01 05:35:40;;;;;;;1.30;0.90;;;;;;;;;;10413617;28;20436;-58
2022/10/01 05:40:43;;;;;;;1.45;0.90;;;;;;;;;;10413904;28;20477;-59
2022/10/01 05:45:44;;;;;;;0.80;0.80;;;;;;;;;;10413775;28;20033;-60
2022/10/01 05:50:45;;;;;;;2.08;1.02;;;;;;;;;;10414234;28;20083;-63
2022/10/01 05:55:45;;;;;;;1.20;0.80;;;;;;;;;;10413901;28;20060;-63
2022/10/01 06:00:46;;;;;;;0.82;0.82;;;;;;;;;;10413867;28;20049;-62
2022/10/01 06:05:46;;;;;;;1.27;1.00;;;;;;;;;;10413034;28;20393;-63
2022/10/01 06:10:47;;;;;;;0.82;0.82;;;;;;;;;;10412949;28;20469;-60
2022/10/01 06:15:50;;;;;;;1.10;0.95;;;;;;;;;;10412243;28;20045;-59
2022/10/01 06:20:51;;;;;;;0.98;0.68;;;;;;;;;;10412997;28;20111;-60
2022/10/01 06:25:51;;;;;;;1.42;0.90;;;;;;;;;;10413271;28;20413;-58
2022/10/01 06:30:51;;;;;;;0.82;0.70;;;;;;;;;;10412158;28;20041;-59
2022/10/01 06:35:51;;;;;;;1.10;1.00;;;;;;;;;;10411631;28;20067;-53
2022/10/01 06:40:56;;;;;;;1.00;0.90;;;;;;;;;;10412217;28;20034;-53
2022/10/01 06:45:59;;;;;;;0.98;0.82;;;;;;;;;;10411392;28;20041;-54
2022/10/01 06:50:59;;;;;;;2.70;0.80;;;;;;;;;;10411325;28;20080;-55
2022/10/01 06:56:04;;;;;;;1.45;0.90;;;;;;;;;;10411072;28;20029;-52
2022/10/01 07:01:04;;;;;;;4.97;1.42;;;;;;;;;;10411091;28;20037;-57
2022/10/01 07:06:07;;;;;;;2.15;1.33;;;;;;;;;;10410525;28;20461;-62
2022/10/01 07:11:07;;;;;;;2.88;1.42;;;;;;;;;;10410351;28;20075;-55
2022/10/01 07:16:08;;;;;;;2.78;1.42;;;;;;;;;;10410173;28;20072;-52
2022/10/01 07:21:17;;;;;;;2.42;1.58;;;;;;;;;;10409847;28;20067;-54
2022/10/01 07:26:17;;;;;;;3.65;2.00;;;;;;;;;;10392348;28;20044;-63
2022/10/01 07:31:18;;;;;;;3.70;1.80;;;;;;;;;;10409890;28;20030;-68
2022/10/01 07:36:18;;;;;;;1.97;1.60;;;;;;;;;;10409864;28;20087;-66
2022/10/01 07:41:18;;;;;;;4.97;1.80;;;;;;;;;;10409517;28;20075;-51
2022/10/01 07:46:18;;;;;;;6.55;2.00;;;;;;;;;;10409647;28;20025;-53
2022/10/01 07:51:19;;;;;;;2.63;1.83;;;;;;;;;;10409221;28;20083;-61
2022/10/01 07:56:19;;;;;;;2.92;2.13;;;;;;;;;;10408375;28;20483;-68
2022/10/01 08:01:23;;;;;;;9.70;2.25;;;;;;;;;;10407793;28;20029;-64
2022/10/01 08:06:23;;;;;;;3.47;2.10;;;;;;;;;;10407977;28;20064;-55
2022/10/01 08:11:24;;;;;;;6.07;1.90;;;;;;;;;;10408034;28;20028;-67
2022/10/01 08:16:27;;;;;;;3.30;1.98;;;;;;;;;;10407958;28;20124;-63
2022/10/01 08:21:28;;;;;;;16.65;2.58;;;;;;;;;;10408186;28;20026;-54
2022/10/01 08:26:28;;;;;;;7.30;2.50;;;;;;;;;;10408406;28;20044;-59
2022/10/01 08:31:28;;;;;;;7.38;2.60;;;;;;;;;;10408317;28;20026;-66
2022/10/01 08:36:29;;;;;;;5.75;2.35;;;;;;;;;;10408001;28;20075;-66
2022/10/01 08:41:36;;;;;;;9.55;2.83;;;;;;;;;;10408476;28;20030;-69
2022/10/01 08:46:37;;;;;;;9.95;2.92;;;;;;;;;;10407825;28;20465;-69
2022/10/01 08:51:55;;;;;;;12.40;3.28;;;;;;;;;;10408046;28;20037;-56
2022/10/01 08:56:58;;;;;;;7.70;3.10;;;;;;;;;;10407569;28;20029;-68
2022/10/01 09:01:58;;;;;;;19.55;3.50;;;;;;;;;;10407396;28;20264;-69
2022/10/01 09:07:04;;;;;;;18.48;3.17;;;;;;;;;;10407358;28;20247;-68
2022/10/01 09:12:04;;;;;;;9.70;3.00;;;;;;;;;;10409899;28;20033;-69
2022/10/01 09:17:11;;;;;;;14.00;3.00;;;;;;;;;;10414611;28;20030;-65
2022/10/01 09:22:14;;;;;;;9.27;2.85;;;;;;;;;;10414317;28;20463;-64
2022/10/01 09:27:14;;;;;;;9.40;3.35;;;;;;;;;;10414516;28;20067;-56
2022/10/01 09:32:16;;;;;;;11.07;2.87;;;;;;;;;;10414840;28;20061;-54
2022/10/01 09:37:23;;;;;;;9.45;2.50;;;;;;;;;;10413672;28;20069;-61
2022/10/01 09:42:25;;;;;;;5.70;2.90;;;;;;;;;;10412759;28;20032;-64
2022/10/01 09:47:25;;;;;;;8.68;3.45;;;;;;;;;;10414217;28;20095;-63
2022/10/01 09:52:32;;;;;;;7.85;3.00;;;;;;;;;;10413471;28;20123;-67
2022/10/01 09:57:35;;;;;;;10.93;2.97;;;;;;;;;;10395364;28;20040;-65
2022/10/01 10:02:40;;;;;;;5.72;2.63;;;;;;;;;;10395018;28;20036;-68
2022/10/01 10:08:02;;;;;;;5.55;2.75;;;;;;;;;;10412616;28;20104;-68
2022/10/01 10:13:16;;;;;;;6.63;2.80;;;;;;;;;;10412538;28;20054;-67
2022/10/01 10:18:24;;;;;;;7.70;3.03;;;;;;;;;;10412938;28;20384;-68
2022/10/01 10:23:33;;;;;;;6.70;2.83;;;;;;;;;;10411941;28;20111;-67
2022/10/01 10:28:39;;;;;;;5.43;2.70;;;;;;;;;;10412123;28;20075;-64
2022/10/01 10:33:47;;;;;;;6.22;2.47;;;;;;;;;;10411852;28;20036;-67
2022/10/01 10:38:49;;;;;;;6.10;2.65;;;;;;;;;;10393688;28;20120;-70
2022/10/01 10:43:50;;;;;;;5.47;2.65;;;;;;;;;;10393601;28;20033;-63
2022/10/01 10:48:57;;;;;;;5.60;2.58;;;;;;;;;;10411248;28;20021;-67
2022/10/01 10:54:00;;;;;;;8.30;2.53;;;;;;;;;;10410614;28;20038;-69
2022/10/01 10:59:07;;;;;;;4.60;2.65;;;;;;;;;;10410259;28;20558;-58
2022/10/01 11:04:17;;;;;;;5.95;2.78;;;;;;;;;;10410476;28;20029;-69
2022/10/01 11:09:18;;;;;;;14.45;2.70;;;;;;;;;;10410492;28;20083;-57
2022/10/01 11:14:37;;;;;;;4.22;2.33;;;;;;;;;;10407767;28;20102;-58
2022/10/01 11:19:40;;;;;;;4.57;2.45;;;;;;;;;;10392014;28;20130;-65
2022/10/01 11:25:09;;;;;;;3.05;2.28;;;;;;;;;;10409393;28;20376;-68
2022/10/01 11:30:16;;;;;;;5.10;2.30;;;;;;;;;;10355562;28;20033;-68
2022/10/01 11:35:36;;;;;;;6.25;2.88;;;;;;;;;;10408407;28;20493;-55
2022/10/01 11:40:40;;;;;;;8.30;2.60;;;;;;;;;;10409312;28;20030;-63
2022/10/01 11:45:42;;;;;;;3.20;2.20;;;;;;;;;;10408866;28;20531;-60
2022/10/01 11:50:45;;;;;;;5.05;2.83;;;;;;;;;;10409499;28;20413;-53
2022/10/01 12:01:17;;;;;;;4.43;2.08;;;;;;;;;;10408672;28;20397;-66
2022/10/01 12:06:32;;;;;;;4.18;2.33;;;;;;;;;;10408881;28;20033;-67
2022/10/01 12:11:41;;;;;;;6.32;2.55;;;;;;;;;;10407832;28;20043;-63
2022/10/01 12:16:41;;;;;;;;;;;;;;;;;;10408067;28;20053;-57
2022/10/01 12:21:44;;;;;;;5.10;2.30;;;;;;;;;;10408677;28;19923;-70
2022/10/01 12:26:45;;;;;;;4.80;2.10;;;;;;;;;;10408069;28;20129;-69
2022/10/01 12:31:48;;;;;;;2.47;2.00;;;;;;;;;;10407798;28;20473;-69
2022/10/01 12:36:52;;;;;;;3.42;1.92;;;;;;;;;;10408306;28;20104;-65
2022/10/01 12:42:15;;;;;;;4.55;2.28;;;;;;;;;;10407518;28;20029;-65
2022/10/01 12:47:27;;;;;;;6.85;2.10;;;;;;;;;;10412340;28;20049;-64
2022/10/01 12:52:32;;;;;;;6.55;2.28;;;;;;;;;;10416043;28;20044;-65
2022/10/01 12:57:51;;;;;;;3.30;2.17;;;;;;;;;;10415835;28;20029;-69
2022/10/01 13:02:58;;;;;;;3.25;2.20;;;;;;;;;;10415340;28;20030;-69
2022/10/01 13:08:01;;;;;;;4.97;2.45;;;;;;;;;;10415504;28;20040;-69
2022/10/01 13:13:03;;;;;;;5.75;2.30;;;;;;;;;;10414936;28;20045;-68
2022/10/01 13:18:11;;;;;;;6.18;2.38;;;;;;;;;;10397066;28;20049;-67
2022/10/01 13:23:14;;;;;;;5.22;2.50;;;;;;;;;;10413600;28;20022;-66
2022/10/01 13:28:17;;;;;;;4.57;2.55;;;;;;;;;;10413974;28;20072;-65
2022/10/01 13:33:22;;;;;;;2.70;2.03;;;;;;;;;;10413909;28;20037;-69
2022/10/01 13:38:30;;;;;;;4.05;1.73;;;;;;;;;;10413706;28;20033;-69
2022/10/01 13:43:31;;;;;;;2.75;2.22;;;;;;;;;;10413649;28;20033;-68
2022/10/01 13:48:34;;;;;;;3.25;2.40;;;;;;;;;;10413452;28;20029;-65
2022/10/01 13:53:36;;;;;;;7.45;2.38;;;;;;;;;;10412994;28;20384;-63
2022/10/01 13:58:42;;;;;;;3.25;2.38;;;;;;;;;;10412540;28;20028;-63
2022/10/01 14:04:02;;;;;;;3.42;2.20;;;;;;;;;;10412805;28;20075;-64
2022/10/01 14:09:20;;;;;;;5.05;2.35;;;;;;;;;;10412652;28;20116;-65
2022/10/01 14:19:44;;;;;;;3.90;2.22;;;;;;;;;;10412438;28;20076;-57
2022/10/01 14:25:02;;;;;;;3.95;2.50;;;;;;;;;;10412822;28;20025;-68
2022/10/01 14:30:03;;;;;;;;;;;;;;;;;;10412411;28;20083;-67
2022/10/01 14:35:42;;;;;;;5.30;2.17;;;;;;;;;;10411517;28;20396;-66
2022/10/01 14:40:45;;;;;;;5.40;2.20;;;;;;;;;;10283826;28;20034;-68
2022/10/01 14:46:04;;;;;;;5.57;2.15;;;;;;;;;;10283200;28;20157;-66
2022/10/01 14:51:05;;;;;;;2.90;2.20;;;;;;;;;;10283526;28;20542;-67
2022/10/01 14:56:07;;;;;;;4.30;2.22;;;;;;;;;;10283085;28;20042;-66
2022/10/01 15:01:15;;;;;;;2.60;2.13;;;;;;;;;;10282949;28;20046;-67
2022/10/01 15:06:17;;;;;;;4.00;2.17;;;;;;;;;;10283200;28;20494;-67
2022/10/01 15:11:21;;;;;;;4.13;2.20;;;;;;;;;;10374246;28;20591;-66
2022/10/01 15:16:23;;;;;;;3.65;1.90;;;;;;;;;;10410111;28;20374;-67
2022/10/01 15:21:31;;;;;;;4.47;1.90;;;;;;;;;;10409940;28;20374;-65
2022/10/01 15:26:32;;;;;;;2.00;1.80;;;;;;;;;;10410384;28;20120;-68
2022/10/01 15:31:32;;;;;;;3.92;2.38;;;;;;;;;;10410542;28;20120;-69
2022/10/01 15:36:33;;;;;;;4.13;2.22;;;;;;;;;;10410040;28;20073;-69
2022/10/01 15:41:34;;;;;;;2.25;1.95;;;;;;;;;;10409035;28;20110;-62
2022/10/01 15:46:34;;;;;;;3.20;2.33;;;;;;;;;;10492785;22;20095;-58
2022/10/01 15:51:35;;;;;;;4.20;2.17;;;;;;;;;;10414174;28;20561;-58
2022/10/01 15:56:35;;;;;;;3.95;2.10;;;;;;;;;;10409310;28;20148;-59
2022/10/01 16:01:39;;;;;;;2.90;2.30;;;;;;;;;;10409328;28;20022;-58
2022/10/01 16:06:43;;;;;;;2.38;1.90;;;;;;;;;;10408277;28;20037;-58
2022/10/01 16:11:57;;;;;;;4.50;1.90;;;;;;;;;;10408260;28;20025;-58
2022/10/01 16:17:16;;;;;;;3.95;2.05;;;;;;;;;;10408589;28;20044;-58
2022/10/01 16:22:18;;;;;;;2.45;2.00;;;;;;;;;;10412477;28;20025;-58
2022/10/01 16:27:19;;;;;;;3.35;1.80;;;;;;;;;;10417246;28;20036;-58
2022/10/01 16:32:19;;;;;;;4.03;1.92;;;;;;;;;;10416535;28;20052;-58
2022/10/01 16:37:20;;;;;;;4.07;2.15;;;;;;;;;;10416125;28;20083;-58
2022/10/01 16:42:23;;;;;;;2.15;1.83;;;;;;;;;;10415757;28;20021;-58
2022/10/01 16:47:24;;;;;;;2.83;2.05;;;;;;;;;;10414812;28;20046;-57
2022/10/01 16:52:24;;;;;;;3.50;1.83;;;;;;;;;;10415730;28;20029;-58
2022/10/01 16:57:24;;;;;;;2.28;1.80;;;;;;;;;;10415976;28;20044;-60
2022/10/01 17:02:25;;;;;;;2.65;1.65;;;;;;;;;;10415227;28;20388;-58
2022/10/01 17:07:25;;;;;;;2.70;1.83;;;;;;;;;;10415131;28;20033;-58
2022/10/01 17:12:25;;;;;;;2.38;1.95;;;;;;;;;;10427167;23;20080;-54
2022/10/01 17:17:26;;;;;;;1.90;1.63;;;;;;;;;;10415154;28;20079;-61
2022/10/01 17:22:26;;;;;;;4.85;1.85;;;;;;;;;;10414229;28;20030;-62
2022/10/01 17:27:26;;;;;;;2.90;1.83;;;;;;;;;;10414284;28;20029;-62
2022/10/01 17:32:27;;;;;;;3.78;2.15;;;;;;;;;;10414461;28;20079;-60
2022/10/01 17:37:27;;;;;;;2.53;1.60;;;;;;;;;;10413664;28;20108;-62
2022/10/01 17:42:27;;;;;;;3.55;1.67;;;;;;;;;;10413790;28;20104;-63
2022/10/01 17:47:28;;;;;;;4.80;1.88;;;;;;;;;;10413640;28;20389;-64
2022/10/01 17:52:28;;;;;;;3.03;1.60;;;;;;;;;;10413404;28;20025;-64
2022/10/01 17:57:29;;;;;;;2.00;1.50;;;;;;;;;;10413411;28;20116;-62
2022/10/01 18:02:30;;;;;;;2.13;1.35;;;;;;;;;;10412768;28;20032;-58
2022/10/01 18:07:30;;;;;;;1.73;1.60;;;;;;;;;;10412688;28;20083;-59
2022/10/01 18:12:32;;;;;;;4.05;1.80;;;;;;;;;;10412358;28;20096;-65
2022/10/01 18:17:33;;;;;;;3.50;1.88;;;;;;;;;;10413052;28;20034;-65
2022/10/01 18:22:35;;;;;;;9.48;1.90;;;;;;;;;;10412147;28;20108;-65
2022/10/01 18:27:35;;;;;;;5.43;2.03;;;;;;;;;;10411981;28;20022;-65
2022/10/01 18:32:38;;;;;;;13.27;4.50;;;;;;;;;;10411854;28;20032;-62
2022/10/01 18:37:44;;;;;;;8.68;5.78;;;;;;;;;;10411792;28;20029;-60
2022/10/01 18:42:51;;;;;;;11.48;5.40;;;;;;;;;;10411821;28;20099;-64
2022/10/01 18:48:03;;;;;;;14.45;6.20;;;;;;;;;;10393441;28;20091;-63
2022/10/01 18:53:17;;;;;;;7.45;4.13;;;;;;;;;;10411003;28;20029;-66
2022/10/01 18:58:20;;;;;;;11.43;5.90;;;;;;;;;;10411464;28;20036;-66
2022/10/01 19:03:20;;;;;;;9.55;5.90;;;;;;;;;;10411335;28;20025;-65
2022/10/01 19:08:32;;;;;;;11.98;6.97;;;;;;;;;;10410320;28;20029;-66
2022/10/01 19:13:55;;;;;;;9.13;5.80;;;;;;;;;;10409898;28;20400;-67
2022/10/01 19:19:06;;;;;;;9.30;5.20;;;;;;;;;;10399042;28;20080;-67
2022/10/01 19:24:06;;;;;;;8.98;5.20;;;;;;;;;;10409758;28;20419;-64
2022/10/01 19:29:06;;;;;;;11.32;5.35;;;;;;;;;;10410378;28;20163;-66
2022/10/01 19:34:16;;;;;;;8.75;5.03;;;;;;;;;;10409505;28;20036;-66
2022/10/01 19:39:20;;;;;;;24.08;6.45;;;;;;;;;;10409981;28;20469;-66
2022/10/01 19:44:39;;;;;;;23.23;6.45;;;;;;;;;;10409711;28;20032;-66
2022/10/01 19:49:40;;;;;;;15.60;5.65;;;;;;;;;;10409068;28;20044;-66
2022/10/01 19:54:42;;;;;;;12.60;5.10;;;;;;;;;;10409143;28;20025;-67
2022/10/01 19:59:43;;;;;;;16.48;5.43;;;;;;;;;;10408582;28;20477;-66
2022/10/01 20:04:50;;;;;;;25.38;5.53;;;;;;;;;;10408651;28;20053;-65
2022/10/01 20:09:57;;;;;;;19.13;5.32;;;;;;;;;;10408553;28;20025;-66
2022/10/01 20:15:10;;;;;;;15.10;5.13;;;;;;;;;;10408802;28;20052;-66
2022/10/01 20:20:28;;;;;;;12.43;4.40;;;;;;;;;;10408667;28;20109;-66
2022/10/01 20:25:28;;;;;;;10.90;4.57;;;;;;;;;;10408355;28;20116;-64
2022/10/01 20:30:33;;;;;;;15.70;4.38;;;;;;;;;;10408341;28;20117;-65
2022/10/01 20:35:51;;;;;;;9.35;4.63;;;;;;;;;;10408156;28;20469;-64
2022/10/01 20:40:54;;;;;;;13.85;4.68;;;;;;;;;;10408185;28;20033;-61
2022/10/01 20:45:54;;;;;;;6.25;4.07;;;;;;;;;;10408002;28;20033;-67
2022/10/01 20:51:00;;;;;;;6.25;3.80;;;;;;;;;;10408907;28;20030;-66
2022/10/01 20:56:03;;;;;;;8.77;3.90;;;;;;;;;;10408473;28;20025;-65
2022/10/01 21:01:08;;;;;;;6.07;3.60;;;;;;;;;;10407771;28;20104;-66
2022/10/01 21:06:15;;;;;;;6.65;4.13;;;;;;;;;;10407676;28;20461;-64
2022/10/01 21:11:27;;;;;;;7.32;4.07;;;;;;;;;;10416081;28;20101;-65
2022/10/01 21:16:32;;;;;;;23.02;4.57;;;;;;;;;;10414696;28;20088;-66
2022/10/01 21:21:39;;;;;;;6.82;3.67;;;;;;;;;;10414992;28;20029;-57
2022/10/01 21:26:40;;;;;;;10.30;3.90;;;;;;;;;;10414330;28;20045;-67
2022/10/01 21:32:00;;;;;;;6.60;3.70;;;;;;;;;;10415161;28;20033;-66
2022/10/01 21:37:01;;;;;;;5.78;3.67;;;;;;;;;;10413324;28;20075;-62
2022/10/01 21:42:07;;;;;;;6.68;3.47;;;;;;;;;;10413499;28;20030;-67
2022/10/01 21:47:08;;;;;;;10.43;4.18;;;;;;;;;;10414065;28;20095;-67
2022/10/01 21:52:16;;;;;;;4.95;3.58;;;;;;;;;;10413373;28;20370;-67
2022/10/01 21:57:34;;;;;;;10.88;3.92;;;;;;;;;;10413697;28;20049;-67
2022/10/01 22:02:53;;;;;;;7.75;3.58;;;;;;;;;;10412983;28;20021;-66
2022/10/01 22:07:59;;;;;;;8.82;3.55;;;;;;;;;;10413314;28;20022;-67
2022/10/01 22:13:01;;;;;;;9.65;4.10;;;;;;;;;;10412431;28;20511;-68
2022/10/01 22:18:03;;;;;;;8.65;3.45;;;;;;;;;;10412197;28;20095;-68
2022/10/01 22:23:07;;;;;;;8.80;4.05;;;;;;;;;;10412704;28;20033;-66
2022/10/01 22:28:12;;;;;;;7.97;3.38;;;;;;;;;;10412623;28;20025;-68
2022/10/01 22:33:20;;;;;;;4.68;3.13;;;;;;;;;;10411816;28;20428;-66
2022/10/01 22:38:34;;;;;;;6.95;3.30;;;;;;;;;;10412744;28;20029;-67
2022/10/01 22:43:35;;;;;;;12.18;3.72;;;;;;;;;;10411227;28;20034;-65
2022/10/01 22:48:44;;;;;;;9.38;3.17;;;;;;;;;;10411417;28;20250;-61
2022/10/01 22:53:52;;;;;;;9.10;3.50;;;;;;;;;;10410987;28;20033;-66
2022/10/01 22:58:56;;;;;;;6.63;3.10;;;;;;;;;;10411109;28;20416;-66
2022/10/01 23:04:04;;;;;;;4.13;2.67;;;;;;;;;;10410925;28;20083;-65
2022/10/01 23:09:08;;;;;;;5.43;3.60;;;;;;;;;;10410587;28;20477;-67
2022/10/01 23:14:16;;;;;;;4.10;3.15;;;;;;;;;;10409248;28;20509;-56
2022/10/01 23:19:16;;;;;;;5.87;3.47;;;;;;;;;;10410728;28;20052;-55
2022/10/01 23:24:35;;;;;;;7.82;2.90;;;;;;;;;;10409815;28;20465;-57
2022/10/01 23:29:47;;;;;;;4.40;3.00;;;;;;;;;;10410462;28;20030;-62
2022/10/01 23:34:50;;;;;;;5.60;3.00;;;;;;;;;;10410272;28;20029;-67
2022/10/01 23:39:57;;;;;;;3.97;2.70;;;;;;;;;;10409535;28;20029;-67
2022/10/01 23:44:57;;;;;;;4.57;3.20;;;;;;;;;;10409749;28;20034;-67
2022/10/01 23:49:59;;;;;;;4.05;2.88;;;;;;;;;;10409414;28;20037;-67
